createdAt,value
2023-05-21T00:01:08.260Z,14.98
2023-05-21T00:03:36.460Z,14.94
2023-05-21T00:06:04.113Z,14.74
2023-05-21T00:08:31.142Z,15.00
2023-05-21T00:10:58.066Z,14.84
2023-05-21T00:13:25.152Z,14.76
2023-05-21T00:15:52.049Z,14.86
2023-05-21T00:18:18.741Z,14.85
2023-05-21T00:20:45.894Z,14.95
2023-05-21T00:23:12.834Z,14.93
2023-05-21T00:25:39.492Z,14.69
2023-05-21T00:28:06.553Z,14.83
2023-05-21T00:30:33.323Z,14.90
2023-05-21T00:33:02.487Z,14.76
2023-05-21T00:35:29.613Z,14.87
2023-05-21T00:37:56.429Z,14.86
2023-05-21T00:40:23.356Z,14.93
2023-05-21T00:42:50.303Z,14.83
2023-05-21T00:45:17.017Z,14.87
2023-05-21T00:47:44.989Z,14.82
2023-05-21T00:50:12.114Z,14.80
2023-05-21T00:52:42.145Z,14.62
2023-05-21T00:55:10.563Z,14.78
2023-05-21T00:57:37.709Z,14.77
2023-05-21T01:00:09.015Z,14.76
2023-05-21T01:02:37.636Z,14.64
2023-05-21T01:05:07.763Z,14.62
2023-05-21T01:07:36.496Z,14.50
2023-05-21T01:10:06.664Z,14.33
2023-05-21T01:12:34.511Z,14.56
2023-05-21T01:15:04.033Z,14.55
2023-05-21T01:17:31.873Z,14.45
2023-05-21T01:19:59.643Z,14.48
2023-05-21T01:22:29.248Z,14.18
2023-05-21T01:24:55.931Z,14.42
2023-05-21T01:27:22.985Z,14.53
2023-05-21T01:29:49.735Z,14.38
2023-05-21T01:32:26.953Z,14.49
2023-05-21T01:35:08.322Z,14.49
2023-05-21T01:37:55.304Z,14.46
2023-05-21T01:40:35.867Z,14.35
2023-05-21T01:43:03.897Z,14.41
2023-05-21T01:45:32.039Z,14.20
2023-05-21T01:47:59.449Z,14.35
2023-05-21T01:50:27.106Z,14.39
2023-05-21T01:52:57.027Z,13.84
2023-05-21T01:55:24.940Z,14.27
2023-05-21T01:57:53.548Z,14.08
2023-05-21T02:00:24.883Z,14.18
2023-05-21T02:02:52.028Z,14.16
2023-05-21T02:05:19.113Z,14.13
2023-05-21T02:07:46.282Z,14.10
2023-05-21T02:10:13.640Z,14.16
2023-05-21T02:12:40.373Z,14.12
2023-05-21T02:15:07.488Z,14.14
2023-05-21T02:17:34.264Z,14.07
2023-05-21T02:20:11.398Z,13.98
2023-05-21T02:22:46.391Z,14.11
2023-05-21T02:25:15.953Z,14.11
2023-05-21T02:27:43.465Z,13.73
2023-05-21T02:30:15.788Z,13.98
2023-05-21T02:32:43.769Z,14.23
2023-05-21T02:35:12.779Z,14.24
2023-05-21T02:37:40.562Z,14.20
2023-05-21T02:40:09.883Z,14.26
2023-05-21T02:42:39.610Z,14.15
2023-05-21T02:45:10.193Z,14.21
2023-05-21T02:47:38.200Z,14.21
2023-05-21T02:50:06.979Z,14.23
2023-05-21T02:52:34.260Z,14.04
2023-05-21T02:55:01.310Z,14.12
2023-05-21T02:57:27.942Z,14.13
2023-05-21T02:59:54.621Z,14.11
2023-05-21T03:02:21.545Z,14.08
2023-05-21T03:04:48.929Z,14.05
2023-05-21T03:07:18.058Z,14.07
2023-05-21T03:09:44.826Z,13.97
2023-05-21T03:12:11.809Z,13.67
2023-05-21T03:14:38.768Z,13.75
2023-05-21T03:17:08.404Z,13.87
2023-05-21T03:19:36.416Z,13.86
2023-05-21T03:22:06.747Z,13.84
2023-05-21T03:24:33.568Z,13.75
2023-05-21T03:27:01.504Z,13.75
2023-05-21T03:29:28.574Z,13.60
2023-05-21T03:31:55.812Z,13.70
2023-05-21T03:34:23.286Z,13.65
2023-05-21T03:36:50.199Z,13.74
2023-05-21T03:39:17.177Z,13.59
2023-05-21T03:41:43.841Z,13.50
2023-05-21T03:44:10.501Z,13.65
2023-05-21T03:46:37.299Z,13.44
2023-05-21T03:49:03.895Z,13.61
2023-05-21T03:51:31.775Z,13.50
2023-05-21T03:53:59.640Z,13.65
2023-05-21T03:56:26.446Z,13.63
2023-05-21T03:58:53.234Z,13.64
2023-05-21T04:01:20.005Z,13.53
2023-05-21T04:03:47.210Z,13.64
2023-05-21T04:06:14.209Z,13.20
2023-05-21T04:08:41.094Z,13.49
2023-05-21T04:11:07.716Z,13.68
2023-05-21T04:13:34.496Z,13.66
2023-05-21T04:16:01.342Z,13.74
2023-05-21T04:18:28.192Z,13.65
2023-05-21T04:20:54.905Z,13.77
2023-05-21T04:23:23.802Z,13.85
2023-05-21T04:25:51.049Z,13.84
2023-05-21T04:28:20.137Z,13.83
2023-05-21T04:30:47.956Z,13.67
2023-05-21T04:33:18.198Z,13.61
2023-05-21T04:35:47.402Z,13.83
2023-05-21T04:38:14.281Z,13.66
2023-05-21T04:40:41.926Z,13.82
2023-05-21T04:43:09.030Z,13.83
2023-05-21T04:45:36.067Z,13.75
2023-05-21T04:48:03.051Z,13.88
2023-05-21T04:50:33.743Z,13.88
2023-05-21T04:53:00.967Z,14.02
2023-05-21T04:55:27.633Z,14.03
2023-05-21T04:57:54.415Z,13.94
2023-05-21T05:00:21.732Z,14.13
2023-05-21T05:02:48.497Z,14.21
2023-05-21T05:05:15.297Z,14.42
2023-05-21T05:07:42.035Z,14.52
2023-05-21T05:10:08.842Z,14.87
2023-05-21T05:12:35.686Z,15.07
2023-05-21T05:15:02.399Z,15.42
2023-05-21T05:17:29.187Z,15.78
2023-05-21T05:19:56.211Z,15.96
2023-05-21T05:22:22.966Z,16.08
2023-05-21T05:24:49.588Z,16.16
2023-05-21T05:27:16.338Z,16.06
2023-05-21T05:29:43.068Z,16.03
2023-05-21T05:32:10.009Z,15.76
2023-05-21T05:34:37.740Z,15.80
2023-05-21T05:37:05.158Z,15.91
2023-05-21T05:39:31.709Z,15.89
2023-05-21T05:41:58.620Z,15.85
2023-05-21T05:44:25.525Z,15.90
2023-05-21T05:46:52.148Z,15.92
2023-05-21T05:49:18.966Z,15.99
2023-05-21T05:51:45.835Z,16.12
2023-05-21T05:54:12.482Z,16.19
2023-05-21T05:56:39.335Z,16.22
2023-05-21T05:59:06.255Z,16.34
2023-05-21T06:01:32.934Z,16.47
2023-05-21T06:03:59.712Z,16.49
2023-05-21T06:06:26.740Z,16.43
2023-05-21T06:08:53.671Z,16.32
2023-05-21T06:11:21.615Z,16.36
2023-05-21T06:13:48.396Z,16.35
2023-05-21T06:16:16.017Z,16.45
2023-05-21T06:18:42.920Z,16.68
2023-05-21T06:21:10.698Z,16.55
2023-05-21T06:23:37.852Z,16.87
2023-05-21T06:26:05.155Z,17.22
2023-05-21T06:28:32.207Z,17.31
2023-05-21T06:30:58.837Z,16.98
2023-05-21T06:33:27.465Z,16.85
2023-05-21T06:35:54.287Z,16.85
2023-05-21T06:38:21.394Z,16.91
2023-05-21T06:40:49.496Z,16.85
2023-05-21T06:43:16.195Z,16.90
2023-05-21T06:45:42.835Z,16.90
2023-05-21T06:48:09.711Z,16.83
2023-05-21T06:50:36.497Z,16.32
2023-05-21T06:53:03.282Z,16.35
2023-05-21T06:55:30.040Z,16.76
2023-05-21T06:57:58.110Z,16.76
2023-05-21T07:00:25.089Z,16.69
2023-05-21T07:02:51.931Z,16.52
2023-05-21T07:05:18.928Z,16.62
2023-05-21T07:07:45.496Z,16.49
2023-05-21T07:10:12.843Z,16.44
2023-05-21T07:12:41.587Z,16.42
2023-05-21T07:15:09.242Z,16.37
2023-05-21T07:17:35.989Z,16.27
2023-05-21T07:20:02.830Z,16.46
2023-05-21T07:22:29.459Z,16.59
2023-05-21T07:24:56.178Z,16.72
2023-05-21T07:27:25.947Z,16.69
2023-05-21T07:29:52.972Z,16.71
2023-05-21T07:32:19.714Z,16.76
2023-05-21T07:34:47.228Z,16.78
2023-05-21T07:37:14.197Z,16.91
2023-05-21T07:39:40.932Z,16.79
2023-05-21T07:42:07.716Z,16.90
2023-05-21T07:44:34.334Z,17.10
2023-05-21T07:47:01.153Z,17.21
2023-05-21T07:49:27.875Z,17.37
2023-05-21T07:51:54.563Z,17.26
2023-05-21T07:54:21.355Z,17.42
2023-05-21T07:56:48.119Z,16.85
2023-05-21T07:59:17.104Z,17.38
2023-05-21T08:01:44.276Z,17.44
2023-05-21T08:06:37.899Z,17.40
2023-05-21T08:09:06.252Z,17.33
2023-05-21T08:11:33.249Z,17.39
2023-05-21T08:14:00.368Z,17.26
2023-05-21T08:16:27.204Z,17.15
2023-05-21T08:18:54.027Z,17.23
2023-05-21T08:21:20.955Z,17.16
2023-05-21T08:23:47.653Z,17.44
2023-05-21T08:26:16.653Z,17.46
2023-05-21T08:28:43.552Z,17.63
2023-05-21T08:31:10.275Z,17.81
2023-05-21T08:33:38.545Z,17.87
2023-05-21T08:36:06.665Z,17.94
2023-05-21T08:38:34.175Z,17.86
2023-05-21T08:41:00.988Z,17.97
2023-05-21T08:43:28.710Z,18.09
2023-05-21T08:45:57.367Z,18.12
2023-05-21T08:48:24.685Z,18.20
2023-05-21T08:50:55.197Z,18.43
2023-05-21T08:53:28.230Z,18.49
2023-05-21T08:55:56.594Z,18.54
2023-05-21T08:58:23.652Z,18.63
2023-05-21T09:00:50.758Z,18.66
2023-05-21T09:03:18.037Z,18.79
2023-05-21T09:05:45.870Z,18.77
2023-05-21T09:08:24.396Z,18.68
2023-05-21T09:10:52.417Z,18.64
2023-05-21T09:13:20.588Z,18.67
2023-05-21T09:15:48.337Z,18.65
2023-05-21T09:18:15.246Z,18.61
2023-05-21T09:20:42.131Z,18.51
2023-05-21T09:23:17.362Z,18.55
2023-05-21T09:25:48.191Z,18.26
2023-05-21T09:28:16.274Z,18.80
2023-05-21T09:30:47.943Z,18.80
2023-05-21T09:33:29.494Z,18.72
2023-05-21T09:35:56.649Z,18.47
2023-05-21T09:38:24.962Z,18.59
2023-05-21T09:40:54.792Z,18.59
2023-05-21T09:43:21.733Z,18.54
2023-05-21T09:45:57.314Z,18.82
2023-05-21T09:48:35.363Z,18.93
2023-05-21T09:51:09.283Z,19.07
2023-05-21T09:53:36.013Z,19.18
2023-05-21T09:56:03.911Z,19.20
2023-05-21T09:58:30.612Z,19.29
2023-05-21T10:00:57.275Z,19.19
2023-05-21T10:03:28.512Z,19.13
2023-05-21T10:05:56.844Z,19.04
2023-05-21T10:08:26.853Z,19.12
2023-05-21T10:10:53.565Z,19.16
2023-05-21T10:13:23.456Z,19.31
2023-05-21T10:15:55.811Z,19.51
2023-05-21T10:18:24.556Z,19.60
2023-05-21T10:20:52.213Z,19.66
2023-05-21T10:23:19.166Z,19.60
2023-05-21T10:25:47.292Z,19.54
2023-05-21T10:28:17.434Z,19.68
2023-05-21T10:30:44.701Z,19.76
2023-05-21T10:33:16.398Z,19.77
2023-05-21T10:35:46.835Z,19.59
2023-05-21T10:38:14.506Z,19.76
2023-05-21T10:40:41.367Z,19.64
2023-05-21T10:43:23.289Z,19.96
2023-05-21T10:45:49.979Z,20.06
2023-05-21T10:48:33.725Z,20.15
2023-05-21T10:51:06.568Z,20.16
2023-05-21T10:54:01.217Z,20.14
2023-05-21T10:56:43.669Z,20.15
2023-05-21T10:59:22.387Z,20.26
2023-05-21T11:01:54.352Z,20.31
2023-05-21T11:04:27.472Z,20.22
2023-05-21T11:06:54.269Z,20.44
2023-05-21T11:09:20.931Z,20.54
2023-05-21T11:11:52.755Z,20.52
2023-05-21T11:14:27.228Z,20.60
2023-05-21T11:16:54.832Z,20.38
2023-05-21T11:19:21.569Z,20.48
2023-05-21T11:21:51.472Z,20.34
2023-05-21T11:24:21.895Z,20.26
2023-05-21T11:26:48.486Z,20.32
2023-05-21T11:29:15.195Z,20.22
2023-05-21T11:32:02.762Z,20.23
2023-05-21T11:34:59.579Z,20.39
2023-05-21T11:37:29.397Z,20.38
2023-05-21T11:39:58.153Z,20.12
2023-05-21T11:42:31.740Z,20.23
2023-05-21T11:44:59.473Z,20.28
2023-05-21T11:47:27.806Z,19.97
2023-05-21T11:49:55.816Z,20.34
2023-05-21T11:52:23.284Z,20.53
2023-05-21T11:54:58.005Z,20.56
2023-05-21T11:57:30.762Z,20.48
2023-05-21T12:00:01.505Z,20.67
2023-05-21T12:02:32.855Z,20.66
2023-05-21T12:05:00.553Z,20.58
2023-05-21T12:07:31.380Z,20.43
2023-05-21T12:09:58.583Z,20.56
2023-05-21T12:12:33.042Z,20.72
2023-05-21T12:15:07.118Z,20.80
2023-05-21T12:17:34.273Z,20.83
2023-05-21T12:20:02.172Z,20.71
2023-05-21T12:22:29.941Z,20.48
2023-05-21T12:24:58.332Z,20.31
2023-05-21T12:27:25.178Z,20.32
2023-05-21T12:29:53.258Z,20.37
2023-05-21T12:32:21.537Z,20.67
2023-05-21T12:34:49.756Z,20.75
2023-05-21T12:37:26.927Z,20.84
2023-05-21T12:40:01.285Z,20.97
2023-05-21T12:42:35.045Z,20.94
2023-05-21T12:45:08.863Z,21.04
2023-05-21T12:47:36.358Z,20.80
2023-05-21T12:50:11.851Z,20.95
2023-05-21T12:52:41.037Z,21.00
2023-05-21T12:55:10.650Z,20.97
2023-05-21T12:57:40.751Z,20.94
2023-05-21T13:00:09.289Z,20.92
2023-05-21T13:02:44.442Z,20.96
2023-05-21T13:05:20.158Z,21.00
2023-05-21T13:07:48.045Z,20.96
2023-05-21T13:10:18.449Z,20.85
2023-05-21T13:12:45.718Z,20.84
2023-05-21T13:15:12.624Z,20.96
2023-05-21T13:17:39.362Z,20.88
2023-05-21T13:20:09.550Z,21.06
2023-05-21T13:22:43.701Z,21.06
2023-05-21T13:25:11.795Z,21.18
2023-05-21T13:27:39.741Z,21.13
2023-05-21T13:30:07.405Z,21.12
2023-05-21T13:32:34.622Z,20.97
2023-05-21T13:35:01.470Z,21.03
2023-05-21T13:37:28.216Z,21.02
2023-05-21T13:39:55.092Z,20.99
2023-05-21T13:42:21.773Z,20.90
2023-05-21T13:44:49.293Z,20.93
2023-05-21T13:47:16.460Z,21.08
2023-05-21T13:49:43.109Z,21.04
2023-05-21T13:52:10.234Z,21.12
2023-05-21T13:54:37.092Z,21.15
2023-05-21T13:57:04.634Z,21.11
2023-05-21T13:59:33.341Z,21.30
2023-05-21T14:02:01.018Z,21.38
2023-05-21T14:04:28.002Z,21.49
2023-05-21T14:06:54.686Z,21.33
2023-05-21T14:09:23.460Z,21.69
2023-05-21T14:11:50.077Z,21.69
2023-05-21T14:14:19.144Z,21.71
2023-05-21T14:16:49.772Z,21.89
2023-05-21T14:19:16.980Z,21.94
2023-05-21T14:21:43.933Z,22.02
2023-05-21T14:24:10.851Z,22.05
2023-05-21T14:26:40.445Z,22.05
2023-05-21T14:29:07.258Z,21.99
2023-05-21T14:31:34.262Z,21.91
2023-05-21T14:34:02.939Z,21.87
2023-05-21T14:36:30.115Z,22.10
2023-05-21T14:38:57.177Z,22.24
2023-05-21T14:41:27.740Z,22.28
2023-05-21T14:43:54.934Z,22.32
2023-05-21T14:46:21.915Z,22.51
2023-05-21T14:48:48.687Z,22.38
2023-05-21T14:51:15.671Z,22.46
2023-05-21T14:53:42.518Z,22.42
2023-05-21T14:56:09.150Z,22.19
2023-05-21T14:58:35.838Z,22.22
2023-05-21T15:01:04.463Z,22.26
2023-05-21T15:03:31.380Z,22.17
2023-05-21T15:05:58.701Z,22.33
2023-05-21T15:08:26.023Z,22.30
2023-05-21T15:10:52.754Z,22.45
2023-05-21T15:13:19.496Z,22.50
2023-05-21T15:15:46.394Z,22.46
2023-05-21T15:18:13.164Z,22.47
2023-05-21T15:20:39.884Z,22.53
2023-05-21T15:23:16.694Z,22.57
2023-05-21T15:25:44.761Z,22.57
2023-05-21T15:28:12.391Z,22.67
2023-05-21T15:30:39.331Z,22.74
2023-05-21T15:33:06.570Z,22.65
2023-05-21T15:35:35.222Z,22.63
2023-05-21T15:38:02.004Z,22.67
2023-05-21T15:40:28.721Z,22.78
2023-05-21T15:42:55.550Z,22.77
2023-05-21T15:45:22.190Z,22.70
2023-05-21T15:47:48.839Z,22.81
2023-05-21T15:50:15.787Z,22.73
2023-05-21T15:52:42.797Z,22.91
2023-05-21T15:55:10.029Z,22.72
2023-05-21T15:57:36.993Z,22.50
2023-05-21T16:00:05.042Z,22.51
2023-05-21T16:02:32.068Z,22.45
2023-05-21T16:04:58.950Z,22.38
2023-05-21T16:07:25.868Z,22.36
2023-05-21T16:09:52.542Z,22.53
2023-05-21T16:12:19.572Z,22.43
2023-05-21T16:14:49.948Z,22.54
2023-05-21T16:17:16.834Z,22.61
2023-05-21T16:19:43.768Z,22.70
2023-05-21T16:22:11.045Z,22.42
2023-05-21T16:24:37.923Z,22.68
2023-05-21T16:27:05.159Z,22.72
2023-05-21T16:29:31.989Z,22.67
2023-05-21T16:31:58.719Z,22.74
2023-05-21T16:34:25.796Z,22.74
2023-05-21T16:36:52.533Z,22.34
2023-05-21T16:39:19.398Z,22.73
2023-05-21T16:41:46.290Z,22.76
2023-05-21T16:44:13.053Z,22.53
2023-05-21T16:46:39.972Z,22.64
2023-05-21T16:49:07.263Z,22.56
2023-05-21T16:51:34.265Z,22.62
2023-05-21T16:54:02.405Z,22.60
2023-05-21T16:56:29.241Z,22.54
2023-05-21T16:58:55.932Z,22.63
2023-05-21T17:01:22.892Z,22.59
2023-05-21T17:03:49.962Z,22.44
2023-05-21T17:06:16.916Z,22.63
2023-05-21T17:08:43.559Z,22.42
2023-05-21T17:11:10.311Z,22.79
2023-05-21T17:13:37.044Z,22.74
2023-05-21T17:16:03.832Z,22.74
2023-05-21T17:18:31.397Z,22.55
2023-05-21T17:20:59.104Z,22.54
2023-05-21T17:23:25.822Z,22.55
2023-05-21T17:25:52.792Z,22.33
2023-05-21T17:28:19.576Z,22.49
2023-05-21T17:30:48.708Z,22.48
2023-05-21T17:33:16.483Z,22.51
2023-05-21T17:35:43.319Z,22.52
2023-05-21T17:38:10.454Z,22.26
2023-05-21T17:40:37.380Z,22.32
2023-05-21T17:43:05.180Z,22.25
2023-05-21T17:45:31.974Z,22.22
2023-05-21T17:48:00.552Z,22.19
2023-05-21T17:50:27.951Z,22.15
2023-05-21T17:52:54.762Z,22.09
2023-05-21T17:55:23.631Z,22.10
2023-05-21T17:57:50.351Z,22.08
2023-05-21T18:00:17.296Z,22.03
2023-05-21T18:02:44.045Z,22.07
2023-05-21T18:05:10.811Z,21.96
2023-05-21T18:07:38.420Z,21.93
2023-05-21T18:10:05.908Z,21.71
2023-05-21T18:12:32.664Z,21.70
2023-05-21T18:14:59.413Z,21.66
2023-05-21T18:17:26.325Z,21.53
2023-05-21T18:19:53.065Z,21.59
2023-05-21T18:22:19.735Z,21.33
2023-05-21T18:24:46.689Z,21.52
2023-05-21T18:27:13.641Z,21.40
2023-05-21T18:29:40.392Z,21.55
2023-05-21T18:32:07.900Z,21.44
2023-05-21T18:34:34.816Z,21.47
2023-05-21T18:37:01.564Z,21.37
2023-05-21T18:39:28.485Z,21.22
2023-05-21T18:42:08.868Z,21.31
2023-05-21T18:44:40.001Z,21.22
2023-05-21T18:47:07.814Z,21.21
2023-05-21T18:49:36.116Z,21.14
2023-05-21T18:52:04.037Z,21.11
2023-05-21T18:54:31.071Z,20.92
2023-05-21T18:57:00.298Z,20.96
2023-05-21T18:59:29.022Z,21.02
2023-05-21T19:01:56.023Z,20.96
2023-05-21T19:04:22.891Z,20.95
2023-05-21T19:06:49.922Z,20.81
2023-05-21T19:09:17.023Z,20.87
2023-05-21T19:11:43.980Z,20.65
2023-05-21T19:14:10.795Z,20.69
2023-05-21T19:16:37.508Z,20.72
2023-05-21T19:19:04.373Z,20.70
2023-05-21T19:21:31.709Z,20.63
2023-05-21T19:23:58.926Z,20.56
2023-05-21T19:26:25.673Z,20.54
2023-05-21T19:28:55.717Z,20.47
2023-05-21T19:31:23.048Z,20.50
2023-05-21T19:33:50.147Z,20.53
2023-05-21T19:36:17.432Z,20.49
2023-05-21T19:38:51.338Z,20.46
2023-05-21T19:41:19.197Z,20.50
2023-05-21T19:43:46.240Z,20.15
2023-05-21T19:46:14.283Z,20.45
2023-05-21T19:48:42.149Z,20.06
2023-05-21T19:51:08.944Z,20.39
2023-05-21T19:53:36.002Z,20.26
2023-05-21T19:56:03.057Z,20.35
2023-05-21T19:58:30.468Z,20.29
2023-05-21T20:01:00.158Z,20.21
2023-05-21T20:03:28.506Z,20.14
2023-05-21T20:05:55.170Z,20.23
2023-05-21T20:08:22.255Z,19.76
2023-05-21T20:10:51.720Z,20.22
2023-05-21T20:13:19.047Z,20.08
2023-05-21T20:15:45.720Z,20.02
2023-05-21T20:18:13.168Z,19.97
2023-05-21T20:20:41.290Z,19.95
2023-05-21T20:23:08.949Z,19.99
2023-05-21T20:25:35.894Z,19.89
2023-05-21T20:28:03.641Z,19.77
2023-05-21T20:30:34.933Z,19.81
2023-05-21T20:33:03.234Z,19.76
2023-05-21T20:35:30.473Z,19.63
2023-05-21T20:37:57.137Z,19.77
2023-05-21T20:40:24.568Z,19.68
2023-05-21T20:42:53.348Z,19.69
2023-05-21T20:45:21.029Z,19.58
2023-05-21T20:47:48.303Z,19.62
2023-05-21T20:50:17.712Z,19.59
2023-05-21T20:52:47.053Z,19.58
2023-05-21T20:55:14.928Z,19.51
2023-05-21T20:57:42.126Z,19.51
2023-05-21T21:00:11.831Z,19.46
2023-05-21T21:02:38.977Z,19.35
2023-05-21T21:05:06.210Z,19.29
2023-05-21T21:07:34.245Z,19.33
2023-05-21T21:10:01.599Z,19.17
2023-05-21T21:12:28.461Z,19.16
2023-05-21T21:14:55.830Z,19.29
2023-05-21T21:17:23.068Z,19.21
2023-05-21T21:19:49.805Z,19.20
2023-05-21T21:22:17.204Z,19.23
2023-05-21T21:24:44.682Z,19.11
2023-05-21T21:27:11.330Z,19.01
2023-05-21T21:29:38.352Z,19.06
2023-05-21T21:32:05.769Z,19.07
2023-05-21T21:34:32.510Z,19.16
2023-05-21T21:36:59.145Z,19.16
2023-05-21T21:39:26.999Z,19.09
2023-05-21T21:41:53.759Z,18.99
2023-05-21T21:44:20.650Z,19.09
2023-05-21T21:46:47.579Z,19.08
2023-05-21T21:49:17.195Z,18.90
2023-05-21T21:51:44.725Z,18.99
2023-05-21T21:54:11.910Z,19.02
2023-05-21T21:56:38.748Z,18.89
2023-05-21T21:59:05.736Z,18.98
2023-05-21T22:01:32.887Z,18.88
2023-05-21T22:03:59.719Z,18.91
2023-05-21T22:06:27.669Z,18.86
2023-05-21T22:08:55.137Z,18.90
2023-05-21T22:11:21.999Z,18.91
2023-05-21T22:13:48.935Z,18.81
2023-05-21T22:16:16.183Z,18.76
2023-05-21T22:18:42.915Z,18.87
2023-05-21T22:21:10.718Z,18.84
2023-05-21T22:23:38.582Z,18.73
2023-05-21T22:26:07.361Z,18.74
2023-05-21T22:28:34.125Z,18.66
2023-05-21T22:31:01.536Z,18.68
2023-05-21T22:33:29.366Z,18.64
2023-05-21T22:35:57.070Z,18.49
2023-05-21T22:38:24.453Z,18.47
2023-05-21T22:40:51.509Z,18.53
2023-05-21T22:43:18.280Z,18.57
2023-05-21T22:45:45.199Z,18.51
2023-05-21T22:48:11.885Z,18.37
2023-05-21T22:50:39.048Z,18.42
2023-05-21T22:53:07.002Z,18.43
2023-05-21T22:55:33.678Z,17.91
2023-05-21T22:58:00.317Z,18.26
2023-05-21T23:00:27.582Z,18.25
2023-05-21T23:02:54.717Z,18.16
2023-05-21T23:05:22.206Z,18.22
2023-05-21T23:07:49.215Z,18.13
2023-05-21T23:10:15.920Z,18.00
2023-05-21T23:12:42.623Z,18.08
2023-05-21T23:15:09.972Z,18.07
2023-05-21T23:17:37.252Z,18.06
2023-05-21T23:20:04.711Z,17.90
2023-05-21T23:22:31.750Z,18.01
2023-05-21T23:24:58.478Z,18.01
2023-05-21T23:27:25.144Z,17.96
2023-05-21T23:29:51.955Z,17.99
2023-05-21T23:32:18.678Z,18.00
2023-05-21T23:34:45.285Z,18.00
2023-05-21T23:37:12.427Z,17.82
2023-05-21T23:39:39.082Z,17.90
2023-05-21T23:42:06.302Z,17.93
2023-05-21T23:44:33.272Z,17.99
2023-05-21T23:46:59.976Z,18.01
2023-05-21T23:49:26.600Z,17.65
2023-05-21T23:51:53.533Z,17.96
2023-05-21T23:54:20.206Z,18.00
2023-05-21T23:56:46.959Z,17.81
2023-05-21T23:59:15.653Z,17.99
